createdAt,value
2023-01-18T00:04:09.044Z,9.32
2023-01-18T00:09:10.784Z,10.13
2023-01-18T00:14:12.440Z,10.48
2023-01-18T00:19:14.329Z,9.93
2023-01-18T00:24:15.982Z,10.25
2023-01-18T00:29:17.617Z,10.45
2023-01-18T00:34:19.306Z,11.32
2023-01-18T00:39:21.027Z,10.55
2023-01-18T00:44:22.635Z,11.30
2023-01-18T00:49:24.644Z,10.45
2023-01-18T00:54:26.296Z,11.25
2023-01-18T00:59:27.977Z,10.27
2023-01-18T01:04:48.276Z,10.27
2023-01-18T01:09:49.940Z,10.38
2023-01-18T01:15:10.206Z,10.30
2023-01-18T01:20:30.735Z,10.80
2023-01-18T01:25:51.043Z,10.98
2023-01-18T01:30:57.691Z,12.02
2023-01-18T01:36:01.923Z,11.00
2023-01-18T01:41:06.739Z,12.45
2023-01-18T01:46:17.977Z,11.98
2023-01-18T01:51:20.239Z,11.30
2023-01-18T01:56:22.207Z,12.05
2023-01-18T02:01:24.300Z,11.43
2023-01-18T02:06:32.618Z,11.48
2023-01-18T02:11:34.313Z,11.68
2023-01-18T02:17:18.366Z,11.43
2023-01-18T02:28:21.399Z,12.18
2023-01-18T02:38:41.955Z,11.43
2023-01-18T02:44:03.525Z,11.73
2023-01-18T02:49:11.460Z,11.90
2023-01-18T02:54:24.059Z,11.95
2023-01-18T02:59:41.874Z,12.02
2023-01-18T03:04:54.053Z,11.25
2023-01-18T03:09:58.020Z,11.43
2023-01-18T03:15:31.771Z,11.82
2023-01-18T03:20:39.389Z,12.35
2023-01-18T03:25:44.490Z,12.45
2023-01-18T03:31:08.024Z,12.82
2023-01-18T03:36:23.433Z,13.50
2023-01-18T03:41:29.161Z,12.07
2023-01-18T03:46:33.119Z,12.63
2023-01-18T03:51:47.427Z,12.38
2023-01-18T03:57:03.194Z,12.32
2023-01-18T04:02:07.750Z,12.43
2023-01-18T04:07:09.637Z,12.57
2023-01-18T04:12:11.340Z,12.77
2023-01-18T04:17:13.059Z,13.40
2023-01-18T04:22:14.730Z,12.98
2023-01-18T04:27:16.371Z,13.23
2023-01-18T04:32:18.070Z,14.00
2023-01-18T04:37:19.777Z,13.23
2023-01-18T04:42:21.437Z,13.00
2023-01-18T04:47:23.152Z,13.02
2023-01-18T04:52:26.601Z,13.20
2023-01-18T05:02:29.952Z,13.15
2023-01-18T05:07:33.705Z,14.75
2023-01-18T05:12:35.369Z,15.15
2023-01-18T05:17:37.031Z,15.40
2023-01-18T05:22:38.784Z,16.30
2023-01-18T05:27:40.416Z,15.38
2023-01-18T05:32:42.771Z,15.60
2023-01-18T05:37:44.415Z,15.40
2023-01-18T05:42:46.172Z,17.70
2023-01-18T05:47:47.817Z,17.42
2023-01-18T05:52:49.523Z,19.92
2023-01-18T05:57:51.190Z,17.75
2023-01-18T06:02:53.881Z,17.52
2023-01-18T06:07:55.547Z,18.03
2023-01-18T06:12:57.464Z,17.30
2023-01-18T06:17:59.890Z,17.05
2023-01-18T06:23:01.767Z,17.35
2023-01-18T06:28:05.003Z,16.98
2023-01-18T06:33:07.281Z,17.83
2023-01-18T06:38:09.459Z,17.48
2023-01-18T06:43:13.920Z,18.40
2023-01-18T06:48:15.590Z,16.33
2023-01-18T06:53:17.312Z,15.65
2023-01-18T06:58:19.012Z,18.35
2023-01-18T07:03:20.764Z,17.95
2023-01-18T07:08:23.561Z,17.15
2023-01-18T07:13:25.655Z,13.97
2023-01-18T07:18:30.006Z,19.10
2023-01-18T07:23:31.731Z,18.50
2023-01-18T07:28:34.363Z,19.17
2023-01-18T07:33:36.997Z,19.23
2023-01-18T07:38:39.215Z,18.57
2023-01-18T07:43:42.622Z,21.85
2023-01-18T07:53:46.650Z,19.65
2023-01-18T07:58:48.678Z,20.42
2023-01-18T08:03:51.045Z,21.10
2023-01-18T08:08:55.236Z,21.92
2023-01-18T08:13:56.989Z,22.30
2023-01-18T08:18:58.633Z,22.10
2023-01-18T08:24:00.294Z,21.13
2023-01-18T08:29:02.170Z,19.52
2023-01-18T08:34:03.915Z,21.60
2023-01-18T08:39:05.661Z,23.48
2023-01-18T08:44:07.708Z,23.10
2023-01-18T08:49:10.702Z,22.58
2023-01-18T08:54:12.668Z,23.05
2023-01-18T08:59:14.449Z,23.67
2023-01-18T09:04:16.158Z,22.67
2023-01-18T09:09:18.732Z,22.40
2023-01-18T09:14:20.471Z,21.77
2023-01-18T09:19:22.259Z,22.60
2023-01-18T09:24:24.285Z,24.38
2023-01-18T09:29:26.050Z,22.45
2023-01-18T09:34:27.675Z,22.23
2023-01-18T09:39:33.377Z,23.25
2023-01-18T09:44:42.206Z,22.73
2023-01-18T09:49:54.798Z,24.40
2023-01-18T09:55:24.690Z,24.10
2023-01-18T10:00:29.668Z,23.38
2023-01-18T10:05:36.579Z,24.33
2023-01-18T10:10:44.491Z,22.45
2023-01-18T10:15:47.385Z,23.55
2023-01-18T10:20:57.705Z,21.40
2023-01-18T10:26:07.702Z,21.48
2023-01-18T10:31:39.952Z,21.13
2023-01-18T10:36:44.933Z,22.70
2023-01-18T10:41:46.546Z,21.55
2023-01-18T10:46:48.581Z,22.02
2023-01-18T10:51:50.283Z,19.35
2023-01-18T10:57:03.293Z,20.20
2023-01-18T11:02:05.562Z,17.73
2023-01-18T11:07:07.339Z,17.55
2023-01-18T11:12:48.473Z,18.70
2023-01-18T11:18:00.247Z,16.50
2023-01-18T11:23:06.045Z,17.25
2023-01-18T11:28:34.689Z,16.15
2023-01-18T11:33:49.034Z,16.42
2023-01-18T11:38:50.684Z,16.63
2023-01-18T11:43:55.144Z,16.98
2023-01-18T11:49:21.842Z,17.13
2023-01-18T11:54:26.727Z,15.35
2023-01-18T11:59:29.434Z,16.13
2023-01-18T12:04:52.593Z,16.35
2023-01-18T12:09:59.799Z,15.00
2023-01-18T12:15:20.785Z,14.38
2023-01-18T12:20:32.847Z,14.75
2023-01-18T12:26:16.118Z,13.98
2023-01-18T12:31:28.143Z,15.05
2023-01-18T12:36:46.348Z,15.10
2023-01-18T12:41:59.659Z,14.05
2023-01-18T12:47:04.178Z,14.20
2023-01-18T12:52:18.434Z,13.63
2023-01-18T12:57:21.409Z,13.40
2023-01-18T13:02:34.808Z,7.18
2023-01-18T13:07:41.893Z,4.30
2023-01-18T13:12:44.823Z,2.72
2023-01-18T13:18:00.728Z,2.97
2023-01-18T13:23:15.756Z,3.13
2023-01-18T13:28:21.288Z,3.05
2023-01-18T13:33:26.004Z,3.28
2023-01-18T13:38:40.703Z,3.20
2023-01-18T13:43:43.183Z,3.40
2023-01-18T13:48:55.654Z,3.80
2023-01-18T13:53:57.470Z,3.20
2023-01-18T13:59:02.569Z,3.50
2023-01-18T14:04:24.081Z,3.67
2023-01-18T14:09:52.127Z,4.80
2023-01-18T14:14:59.334Z,3.92
2023-01-18T14:20:19.600Z,4.07
2023-01-18T14:26:06.227Z,4.47
2023-01-18T14:31:23.746Z,3.97
2023-01-18T14:36:28.268Z,3.63
2023-01-18T14:41:31.376Z,3.42
2023-01-18T14:46:33.343Z,4.27
2023-01-18T14:51:35.311Z,3.03
2023-01-18T14:56:43.132Z,4.22
2023-01-18T15:02:12.487Z,4.00
2023-01-18T15:07:18.994Z,4.05
2023-01-18T15:12:28.644Z,4.63
2023-01-18T15:17:31.484Z,3.85
2023-01-18T15:22:36.590Z,4.00
2023-01-18T15:27:38.289Z,4.30
2023-01-18T15:32:40.158Z,4.20
2023-01-18T15:37:42.134Z,3.95
2023-01-18T15:43:04.665Z,4.07
2023-01-18T15:48:22.683Z,4.22
2023-01-18T15:53:35.699Z,4.30
2023-01-18T15:58:43.380Z,5.10
2023-01-18T16:03:45.957Z,4.50
2023-01-18T16:09:10.583Z,4.70
2023-01-18T16:14:28.725Z,4.72
2023-01-18T16:19:36.356Z,4.70
2023-01-18T16:24:58.040Z,4.72
2023-01-18T16:30:02.520Z,8.05
2023-01-18T16:35:16.651Z,17.17
2023-01-18T16:40:20.856Z,8.85
2023-01-18T16:45:22.651Z,7.45
2023-01-18T16:50:24.442Z,6.88
2023-01-18T16:55:26.243Z,7.15
2023-01-18T17:00:35.599Z,8.00
2023-01-18T17:05:37.294Z,9.10
2023-01-18T17:10:42.222Z,8.45
2023-01-18T17:15:45.509Z,8.98
2023-01-18T17:20:47.435Z,11.43
2023-01-18T17:25:49.417Z,8.20
2023-01-18T17:30:51.517Z,8.15
2023-01-18T17:35:54.425Z,8.27
2023-01-18T17:40:56.260Z,7.83
2023-01-18T17:46:01.893Z,8.32
2023-01-18T17:51:12.035Z,9.48
2023-01-18T17:56:16.465Z,9.60
2023-01-18T18:01:19.316Z,9.93
2023-01-18T18:06:30.773Z,10.37
2023-01-18T18:11:33.349Z,8.68
2023-01-18T18:16:42.868Z,8.45
2023-01-18T18:21:47.923Z,9.40
2023-01-18T18:26:57.183Z,11.50
2023-01-18T18:31:59.288Z,12.50
2023-01-18T18:37:02.860Z,11.90
2023-01-18T18:42:04.662Z,12.45
2023-01-18T18:47:08.703Z,13.73
2023-01-18T18:52:11.198Z,14.02
2023-01-18T18:57:13.007Z,14.07
2023-01-18T19:02:16.342Z,13.65
2023-01-18T19:07:18.665Z,14.07
2023-01-18T19:12:20.388Z,14.25
2023-01-18T19:17:30.454Z,13.57
2023-01-18T19:22:32.880Z,13.50
2023-01-18T19:27:34.636Z,15.93
2023-01-18T19:32:37.079Z,16.08
2023-01-18T19:37:39.620Z,15.93
2023-01-18T19:42:41.577Z,14.77
2023-01-18T19:47:43.246Z,14.68
2023-01-18T19:52:46.233Z,12.52
2023-01-18T19:57:48.663Z,13.20
2023-01-18T20:02:50.664Z,12.35
2023-01-18T20:07:52.614Z,12.82
2023-01-18T20:12:54.347Z,12.75
2023-01-18T20:17:56.034Z,13.52
2023-01-18T20:22:58.219Z,12.68
2023-01-18T20:28:00.355Z,13.15
2023-01-18T20:33:02.521Z,13.77
2023-01-18T20:38:04.510Z,12.70
2023-01-18T20:43:06.583Z,12.38
2023-01-18T20:48:08.572Z,12.65
2023-01-18T20:53:11.288Z,12.55
2023-01-18T20:58:13.006Z,13.50
2023-01-18T21:03:17.864Z,13.27
2023-01-18T21:08:19.705Z,12.50
2023-01-18T21:13:21.839Z,12.15
2023-01-18T21:18:24.211Z,12.57
2023-01-18T21:23:27.128Z,13.70
2023-01-18T21:28:28.976Z,13.23
2023-01-18T21:33:31.593Z,13.10
2023-01-18T21:38:33.390Z,9.60
2023-01-18T21:43:53.590Z,12.45
2023-01-18T21:48:55.366Z,12.45
2023-01-18T21:54:15.412Z,11.13
2023-01-18T21:59:17.158Z,10.95
2023-01-18T22:04:37.636Z,11.57
2023-01-18T22:09:39.547Z,11.50
2023-01-18T22:14:41.384Z,11.88
2023-01-18T22:19:43.875Z,11.63
2023-01-18T22:24:45.534Z,10.88
2023-01-18T22:29:47.192Z,12.00
2023-01-18T22:34:48.848Z,11.63
2023-01-18T22:39:50.593Z,11.15
2023-01-18T22:44:52.343Z,11.77
2023-01-18T22:49:54.130Z,11.60
2023-01-18T22:54:55.823Z,10.73
2023-01-18T22:59:57.563Z,11.95
2023-01-18T23:05:00.438Z,9.23
2023-01-18T23:10:02.141Z,11.60
2023-01-18T23:15:22.744Z,11.65
2023-01-18T23:20:24.539Z,12.07
2023-01-18T23:25:26.284Z,11.85
2023-01-18T23:30:28.061Z,11.68
2023-01-18T23:35:29.869Z,10.88
2023-01-18T23:40:50.236Z,10.48
2023-01-18T23:46:10.804Z,10.77
2023-01-18T23:51:31.359Z,11.20
2023-01-18T23:56:33.289Z,11.52
